Garfield, Ohio
Current Conditions -  °F | °C
As of 10:53 PM on Wednesday 28 Jan 2015 (Local Time) from KBKL Reporting Station
Clear Clear  
Wind Chill: 16°   Ceiling: Unl
Heat Index: 26°   Visibility: 10mi
Dew Point:   Wind: 12mph
Humidity: 49%   Direction: 160°SSE
Pressure: 30.22"   Gusts: NA
Location:  41.4062°N, 81.6149°W
Report Text: KBKL 290353Z 16010KT 10SM CLR M03/M13 A3022 RMK AO2 SLP244 T10331128
Loading
Personal Weather Stations






























Interactive Weather Map New forecast layout! Learn more

10-Day Weather Forecast

Advertisements
Track Severe Weather on mobile